logo
Search for airport 
image banner adimage banner adimage banner ad
image banner ad

PK3N0 - Namorik

Located in Namorik Atoll, Marshall Islands

ICAO - , IATA -

Data provided by Airmate  

General information

Coordinates: N5°37'54" E168°7'30"
Elevation is 15 feet MSL.
Magnetic variation is +10° East
View others Airports in Namorik

Operational data

Special qualification required
Current time UTC:
Current local time:
Weather at : - ( 0 km )
METAR: PAKU 241245Z 23011KT 10SM R24/P6000FT SCT048 15/12 A2995
View NOTAMs / SUP AIP / TFR affecting this airport [VIEW]
Communications frequencies: [VIEW]

Runways:

RWY identifierQFULength (ft)Width (ft)SurfaceLDA (ft)
07290045GRAVE
25290045GRAVE

Airport contact information

Address: Namorik Atoll Marshall Islands

Satellite view of PK3N0